Time;durP1;ratioP1;P1;durP2;ratioP2;P2;SDS_P1;SDS_P2;PMS_P1;PMS_P2;Temp;Humidity;BMP_temperature;BMP_pressure;BME280_temperature;BME280_humidity;BME280_pressure;Samples;Min_cycle;Max_cycle;Signal;HPM_P1;HPM_P2
2023/06/12 00:01:59;;;;;;;4.45;2.55;;;13.70;99.90;;;;;;6150843;23;20001;-79
2023/06/12 00:04:25;;;;;;;4.95;2.22;;;13.70;99.90;;;;;;6154361;23;20076;-80
2023/06/12 00:06:51;;;;;;;4.70;2.75;;;14.00;99.90;;;;;;6152475;23;20014;-79
2023/06/12 00:09:17;;;;;;;6.65;2.78;;;13.70;99.90;;;;;;6151900;23;20005;-78
2023/06/12 00:11:43;;;;;;;4.70;1.95;;;13.70;99.90;;;;;;6148950;23;20009;-76
2023/06/12 00:14:08;;;;;;;4.78;2.80;;;13.90;99.90;;;;;;6150438;23;20002;-77
2023/06/12 00:16:37;;;;;;;3.78;2.50;;;13.90;99.90;;;;;;6151729;23;20033;-80
2023/06/12 00:19:03;;;;;;;4.43;2.53;;;13.90;99.90;;;;;;6150452;23;20013;-78
2023/06/12 00:21:29;;;;;;;6.70;3.35;;;13.60;99.90;;;;;;6153665;23;20005;-77
2023/06/12 00:23:54;;;;;;;4.53;2.50;;;13.90;99.90;;;;;;6155802;23;20008;-78
2023/06/12 00:26:20;;;;;;;5.25;2.78;;;;;;;;;;6155520;23;20084;-79
2023/06/12 00:28:46;;;;;;;3.70;2.30;;;;;;;;;;6154620;23;20017;-77
2023/06/12 00:31:12;;;;;;;12.43;2.78;;;13.80;99.90;;;;;;6149805;23;20458;-77
2023/06/12 00:33:41;;;;;;;5.97;3.15;;;13.80;99.90;;;;;;6151466;23;20059;-78
2023/06/12 00:36:06;;;;;;;7.35;2.83;;;13.80;99.90;;;;;;6151716;23;20354;-78
2023/06/12 00:38:34;;;;;;;5.07;2.55;;;;;;;;;;6150892;23;20001;-77
2023/06/12 00:41:00;;;;;;;3.92;2.47;;;13.80;99.90;;;;;;6150221;23;20020;-77
2023/06/12 00:43:26;;;;;;;6.30;2.20;;;13.70;99.90;;;;;;6153665;23;19997;-78
2023/06/12 00:45:51;;;;;;;5.25;2.85;;;13.70;99.90;;;;;;6153661;23;20001;-79
2023/06/12 00:48:17;;;;;;;5.93;3.15;;;13.40;99.90;;;;;;6155812;23;20001;-80
2023/06/12 00:50:44;;;;;;;6.18;2.90;;;13.30;99.90;;;;;;6146718;23;20001;-77
2023/06/12 00:53:10;;;;;;;6.40;2.97;;;13.70;99.90;;;;;;6154351;23;20020;-78
2023/06/12 00:55:36;;;;;;;5.75;2.92;;;13.80;99.90;;;;;;6152162;23;20316;-76
2023/06/12 00:58:02;;;;;;;4.47;2.65;;;13.40;99.90;;;;;;6151125;23;20076;-79
2023/06/12 01:00:28;;;;;;;3.35;2.25;;;13.70;99.90;;;;;;6153301;23;20005;-78
2023/06/12 01:03:05;;;;;;;5.45;1.95;;;13.50;99.90;;;;;;6151883;23;20020;-79
2023/06/12 01:05:35;;;;;;;4.18;2.72;;;13.70;99.90;;;;;;6153244;23;20105;-77
2023/06/12 01:08:28;;;;;;;5.68;3.22;;;13.70;99.90;;;;;;6153473;23;19990;-77
2023/06/12 01:11:17;;;;;;;5.40;2.60;;;13.80;99.90;;;;;;6151848;23;20088;-79
2023/06/12 01:13:43;;;;;;;12.35;2.67;;;13.10;99.90;;;;;;6153903;23;20319;-76
2023/06/12 01:16:10;;;;;;;3.95;2.53;;;;;;;;;;6153383;23;20013;-77
2023/06/12 01:18:36;;;;;;;4.85;2.72;;;;;;;;;;6154958;23;20032;-78
2023/06/12 01:21:09;;;;;;;6.10;2.65;;;14.00;99.90;;;;;;6153186;23;20009;-78
2023/06/12 01:24:27;;;;;;;5.38;2.85;;;13.50;99.90;;;;;;6152043;23;20009;-78
2023/06/12 01:27:11;;;;;;;4.55;2.67;;;13.10;99.90;;;;;;6105545;23;20720;-77
2023/06/12 01:30:15;;;;;;;4.50;2.95;;;13.30;99.90;;;;;;6155015;23;20013;-76
2023/06/12 01:32:41;;;;;;;4.43;2.88;;;;;;;;;;6152730;23;20092;-78
2023/06/12 01:35:16;;;;;;;5.60;2.92;;;13.20;99.90;;;;;;6152082;23;20033;-77
2023/06/12 01:37:56;;;;;;;6.00;2.75;;;12.20;99.90;;;;;;6152994;23;20009;-77
2023/06/12 01:40:26;;;;;;;6.35;3.10;;;13.20;99.90;;;;;;6153029;23;20304;-79
2023/06/12 01:42:52;;;;;;;5.70;3.08;;;13.20;99.90;;;;;;6151461;23;20009;-77
2023/06/12 01:45:17;;;;;;;5.38;2.80;;;13.20;99.90;;;;;;6152103;23;20524;-77
2023/06/12 01:47:43;;;;;;;4.25;2.38;;;;;;;;;;6152823;23;20149;-77
2023/06/12 01:50:10;;;;;;;4.63;2.78;;;13.20;99.90;;;;;;6153885;23;20324;-78
2023/06/12 01:52:38;;;;;;;3.83;2.45;;;;;;;;;;6153317;23;20084;-77
2023/06/12 01:55:04;;;;;;;5.53;2.95;;;13.10;99.90;;;;;;6151736;23;20005;-77
2023/06/12 01:57:32;;;;;;;5.97;3.30;;;13.30;99.90;;;;;;6152519;23;20005;-77
2023/06/12 02:00:00;;;;;;;4.90;2.72;;;13.50;99.90;;;;;;6149916;23;20064;-76
2023/06/12 02:02:26;;;;;;;5.00;2.47;;;13.00;99.90;;;;;;6152602;23;19997;-77
2023/06/12 02:04:52;;;;;;;5.47;3.45;;;12.90;99.90;;;;;;6151212;23;20556;-77
2023/06/12 02:07:20;;;;;;;5.25;2.88;;;13.20;99.90;;;;;;6153536;23;20013;-77
2023/06/12 02:09:46;;;;;;;6.13;2.50;;;12.90;99.90;;;;;;6154004;23;20005;-77
2023/06/12 02:12:11;;;;;;;6.30;3.30;;;12.90;99.90;;;;;;6152063;23;20016;-79
2023/06/12 02:14:38;;;;;;;4.55;2.80;;;13.10;99.90;;;;;;6149394;23;20009;-78
2023/06/12 02:17:03;;;;;;;4.93;3.08;;;13.10;99.90;;;;;;6151336;23;20365;-78
2023/06/12 02:19:29;;;;;;;4.45;2.65;;;12.90;99.90;;;;;;6153107;23;20008;-79
2023/06/12 02:21:56;;;;;;;6.10;2.30;;;12.80;99.90;;;;;;6128050;23;20018;-78
2023/06/12 02:24:27;;;;;;;3.90;2.45;;;13.10;99.90;;;;;;6153945;23;20002;-77
2023/06/12 02:26:52;;;;;;;4.53;2.78;;;12.70;99.90;;;;;;6153672;23;20028;-77
2023/06/12 02:29:18;;;;;;;7.10;2.47;;;12.60;99.90;;;;;;6151151;23;20006;-77
2023/06/12 02:31:43;;;;;;;6.50;3.00;;;12.60;99.90;;;;;;6151347;23;20009;-78
2023/06/12 02:34:09;;;;;;;5.75;3.30;;;12.60;99.90;;;;;;6149926;23;20010;-77
2023/06/12 02:36:39;;;;;;;6.13;3.50;;;12.60;99.90;;;;;;6150088;23;20001;-76
2023/06/12 02:39:14;;;;;;;4.70;3.33;;;12.50;99.90;;;;;;6150113;23;20055;-77
2023/06/12 02:41:41;;;;;;;5.40;2.58;;;12.20;99.90;;;;;;6151860;23;20451;-77
2023/06/12 02:44:06;;;;;;;7.10;3.65;;;12.40;99.90;;;;;;6152284;23;20024;-77
2023/06/12 02:46:32;;;;;;;6.75;2.95;;;12.30;99.90;;;;;;6151263;23;20033;-79
2023/06/12 02:48:57;;;;;;;6.47;3.40;;;12.60;99.90;;;;;;6150411;23;20446;-77
2023/06/12 02:51:24;;;;;;;5.57;3.28;;;12.60;99.90;;;;;;6145115;23;20009;-77
2023/06/12 02:53:51;;;;;;;6.45;2.90;;;12.50;99.90;;;;;;6150453;23;20013;-77
2023/06/12 02:56:17;;;;;;;6.90;3.42;;;12.20;99.90;;;;;;6150417;23;20401;-77
2023/06/12 02:58:44;;;;;;;6.20;3.50;;;12.50;99.90;;;;;;6151453;23;20029;-79
2023/06/12 03:01:10;;;;;;;4.82;2.85;;;12.10;99.90;;;;;;6150106;23;20048;-77
2023/06/12 03:03:36;;;;;;;4.47;2.80;;;12.50;99.90;;;;;;6146411;23;20006;-76
2023/06/12 03:06:03;;;;;;;5.53;3.45;;;10.90;99.90;;;;;;6150951;23;20009;-78
2023/06/12 03:08:28;;;;;;;5.60;3.05;;;12.20;99.90;;;;;;6150111;23;20009;-77
2023/06/12 03:10:54;;;;;;;6.95;2.78;;;12.30;99.90;;;;;;6150602;23;20009;-78
2023/06/12 03:13:20;;;;;;;6.57;3.30;;;;;;;;;;6153484;23;20012;-77
2023/06/12 03:15:47;;;;;;;5.28;2.83;;;12.40;99.90;;;;;;6150456;23;20005;-77
2023/06/12 03:18:13;;;;;;;5.30;2.85;;;;;;;;;;6151226;23;20002;-77
2023/06/12 03:20:40;;;;;;;5.82;2.90;;;12.80;99.90;;;;;;6149085;23;19993;-77
2023/06/12 03:23:06;;;;;;;4.68;2.70;;;12.60;99.90;;;;;;6151956;23;20089;-79
2023/06/12 03:25:31;;;;;;;6.55;3.13;;;11.90;99.90;;;;;;6125767;23;20033;-77
2023/06/12 03:27:57;;;;;;;8.63;2.80;;;12.20;99.90;;;;;;6149756;23;20001;-76
2023/06/12 03:30:24;;;;;;;5.35;3.00;;;12.40;99.90;;;;;;6151821;23;20033;-78
2023/06/12 03:32:52;;;;;;;7.15;3.20;;;12.50;99.90;;;;;;6150715;23;20005;-76
2023/06/12 03:35:17;;;;;;;3.75;3.13;;;12.20;99.90;;;;;;6149023;23;20048;-77
2023/06/12 03:37:43;;;;;;;8.63;3.40;;;;;;;;;;6148674;23;20036;-77
2023/06/12 03:40:09;;;;;;;5.20;3.13;;;12.40;99.90;;;;;;6150944;23;20005;-79
2023/06/12 03:42:36;;;;;;;4.03;2.50;;;12.40;99.90;;;;;;6149771;23;20009;-77
2023/06/12 03:45:02;;;;;;;5.72;3.00;;;12.10;99.90;;;;;;6149030;23;20103;-79
2023/06/12 03:47:27;;;;;;;4.88;2.92;;;12.10;99.90;;;;;;6150342;23;20037;-78
2023/06/12 03:49:53;;;;;;;7.20;3.33;;;11.90;99.90;;;;;;6153234;23;20006;-76
2023/06/12 03:52:19;;;;;;;5.07;2.60;;;12.50;99.90;;;;;;6149827;23;20006;-76
2023/06/12 03:54:45;;;;;;;5.60;3.20;;;;;;;;;;6148781;23;20020;-78
2023/06/12 03:57:11;;;;;;;6.05;3.15;;;12.00;99.90;;;;;;6149992;23;20013;-79
2023/06/12 03:59:36;;;;;;;5.38;2.83;;;12.20;99.90;;;;;;6152440;23;19998;-79
2023/06/12 04:02:03;;;;;;;4.75;3.08;;;12.40;99.90;;;;;;6147002;23;20001;-78
2023/06/12 04:04:28;;;;;;;5.30;3.20;;;12.70;99.90;;;;;;6146990;23;20004;-79
2023/06/12 04:06:56;;;;;;;6.07;3.30;;;12.20;99.90;;;;;;6146968;23;20017;-78
2023/06/12 04:09:22;;;;;;;9.55;2.80;;;12.60;99.90;;;;;;6147286;23;20024;-77
2023/06/12 04:11:48;;;;;;;4.47;3.45;;;12.10;99.90;;;;;;6145701;23;20332;-78
2023/06/12 04:14:15;;;;;;;4.13;2.65;;;12.30;99.90;;;;;;6152655;23;20012;-77
2023/06/12 04:16:40;;;;;;;8.93;3.83;;;12.20;99.90;;;;;;6143954;23;20084;-77
2023/06/12 04:19:06;;;;;;;6.50;3.35;;;12.30;99.90;;;;;;6152065;23;20091;-78
2023/06/12 04:21:33;;;;;;;5.18;3.20;;;12.30;99.90;;;;;;6147883;23;20572;-79
2023/06/12 04:24:03;;;;;;;5.45;3.10;;;12.50;99.90;;;;;;6147694;23;20005;-80
2023/06/12 04:26:29;;;;;;;6.18;3.35;;;12.80;99.90;;;;;;6148746;23;20064;-76
2023/06/12 04:28:56;;;;;;;4.57;2.58;;;12.70;99.90;;;;;;6149431;23;20374;-79
2023/06/12 04:31:26;;;;;;;6.63;3.30;;;12.20;99.90;;;;;;6150568;23;20069;-75
2023/06/12 04:33:52;;;;;;;7.68;3.75;;;12.50;99.90;;;;;;6129073;23;20077;-76
2023/06/12 04:36:18;;;;;;;5.22;3.28;;;13.00;99.90;;;;;;6148670;23;20113;-78
2023/06/12 04:38:45;;;;;;;7.40;4.03;;;13.40;99.90;;;;;;6149386;23;19997;-78
2023/06/12 04:41:11;;;;;;;5.38;2.90;;;13.10;99.90;;;;;;6146379;23;20004;-77
2023/06/12 04:43:39;;;;;;;5.68;3.20;;;13.00;99.90;;;;;;6145406;23;20002;-77
2023/06/12 04:46:07;;;;;;;5.32;2.90;;;13.00;99.90;;;;;;6150355;23;20009;-77
2023/06/12 04:48:33;;;;;;;9.23;3.40;;;13.30;99.90;;;;;;6143039;23;20002;-78
2023/06/12 04:50:58;;;;;;;8.55;3.83;;;13.60;99.90;;;;;;6151202;23;20014;-78
2023/06/12 04:53:27;;;;;;;5.05;3.03;;;13.60;99.90;;;;;;6150139;23;20489;-76
2023/06/12 04:55:54;;;;;;;5.93;3.63;;;14.00;99.90;;;;;;6153552;23;19997;-78
2023/06/12 04:58:20;;;;;;;5.43;2.85;;;;;;;;;;6152562;23;20051;-77
2023/06/12 05:00:47;;;;;;;5.00;3.08;;;14.90;99.90;;;;;;6152422;23;20001;-78
2023/06/12 05:03:16;;;;;;;5.65;2.95;;;15.50;99.90;;;;;;6152904;23;20009;-78
2023/06/12 05:05:43;;;;;;;5.72;3.00;;;15.80;99.90;;;;;;6153758;23;20009;-78
2023/06/12 05:08:08;;;;;;;8.10;2.70;;;15.50;99.90;;;;;;6153827;23;20067;-76
2023/06/12 05:10:34;;;;;;;5.25;2.72;;;;;;;;;;6152704;23;19989;-78
2023/06/12 05:13:00;;;;;;;5.22;2.80;;;16.20;99.90;;;;;;6151587;23;20401;-79
2023/06/12 05:15:25;;;;;;;4.55;2.78;;;16.30;99.90;;;;;;6153068;23;20009;-75
2023/06/12 05:17:51;;;;;;;4.15;2.85;;;16.10;99.90;;;;;;6153922;23;20016;-77
2023/06/12 05:20:17;;;;;;;9.60;2.97;;;16.20;99.90;;;;;;6153173;23;20339;-76
2023/06/12 05:22:43;;;;;;;6.38;3.20;;;15.80;99.90;;;;;;6151460;23;20477;-76
2023/06/12 05:25:10;;;;;;;5.22;3.10;;;16.10;99.90;;;;;;6152069;23;20006;-77
2023/06/12 05:27:36;;;;;;;5.93;3.60;;;;;;;;;;6155140;23;20338;-76
2023/06/12 05:30:03;;;;;;;5.90;3.67;;;16.60;99.90;;;;;;6151788;23;20084;-76
2023/06/12 05:32:29;;;;;;;5.40;2.42;;;;;;;;;;6153989;23;20006;-76
2023/06/12 05:34:57;;;;;;;4.75;3.03;;;16.40;99.90;;;;;;6154014;23;20038;-78
2023/06/12 05:37:22;;;;;;;4.75;2.60;;;17.40;99.90;;;;;;6152542;23;20002;-75
2023/06/12 05:39:48;;;;;;;8.20;3.60;;;16.90;99.90;;;;;;6155256;23;20002;-77
2023/06/12 05:42:14;;;;;;;9.05;3.35;;;17.00;99.90;;;;;;6154446;23;20032;-77
2023/06/12 05:44:40;;;;;;;5.47;2.95;;;;;;;;;;6154707;23;20002;-76
2023/06/12 05:47:06;;;;;;;4.97;3.03;;;17.20;99.90;;;;;;6154701;23;20354;-77
2023/06/12 05:49:32;;;;;;;6.45;3.35;;;17.40;99.90;;;;;;6155185;23;20001;-78
2023/06/12 05:51:58;;;;;;;6.15;3.85;;;17.60;99.90;;;;;;6154428;23;20091;-77
2023/06/12 05:54:24;;;;;;;5.20;2.78;;;18.00;99.90;;;;;;6154584;23;20010;-78
2023/06/12 05:56:50;;;;;;;5.43;3.03;;;18.30;99.90;;;;;;6153622;23;20012;-76
2023/06/12 05:59:16;;;;;;;4.13;2.67;;;18.90;99.90;;;;;;6152440;23;20013;-80
2023/06/12 06:01:41;;;;;;;4.47;2.72;;;20.00;99.90;;;;;;6152826;23;20338;-77
2023/06/12 06:04:11;;;;;;;5.63;2.92;;;21.20;99.90;;;;;;6154935;23;20076;-78
2023/06/12 06:06:39;;;;;;;2.80;2.22;;;21.70;99.90;;;;;;6155567;23;20018;-79
2023/06/12 06:09:07;;;;;;;4.22;3.25;;;22.80;99.90;;;;;;6156254;23;20001;-79
2023/06/12 06:11:33;;;;;;;5.40;2.80;;;24.00;99.90;;;;;;6104591;23;20020;-80
2023/06/12 06:13:59;;;;;;;9.18;4.18;;;24.50;99.90;;;;;;6155292;23;20006;-78
2023/06/12 06:16:25;;;;;;;23.33;5.90;;;24.90;99.90;;;;;;6154774;23;20457;-81
2023/06/12 06:18:52;;;;;;;21.60;9.05;;;25.40;99.90;;;;;;6152662;23;20053;-81
2023/06/12 06:21:18;;;;;;;47.45;18.98;;;26.10;99.90;;;;;;6153069;23;20023;-78
2023/06/12 06:23:44;;;;;;;21.77;9.90;;;27.50;99.90;;;;;;6155272;23;20010;-80
2023/06/12 06:26:10;;;;;;;21.02;9.07;;;28.10;99.90;;;;;;6155485;23;20080;-79
2023/06/12 06:28:36;;;;;;;51.95;23.80;;;29.50;99.90;;;;;;6155247;23;20099;-79
2023/06/12 06:31:03;;;;;;;16.00;8.25;;;;;;;;;;6128637;23;20005;-81
2023/06/12 06:33:30;;;;;;;12.38;4.70;;;;;;;;;;6154832;23;20071;-81
2023/06/12 06:35:55;;;;;;;21.45;9.02;;;34.50;99.90;;;;;;6156086;23;20506;-81
2023/06/12 06:38:24;;;;;;;5.90;3.25;;;35.90;90.20;;;;;;6153556;23;19998;-79
2023/06/12 06:40:50;;;;;;;4.43;2.53;;;37.00;85.10;;;;;;6151979;23;20029;-81
2023/06/12 06:43:16;;;;;;;2.78;2.25;;;;;;;;;;6155857;23;20002;-81
2023/06/12 06:45:42;;;;;;;2.85;2.25;;;;;;;;;;6154196;23;20002;-81
2023/06/12 06:48:08;;;;;;;4.63;2.33;;;38.90;90.80;;;;;;6155658;23;20384;-80
2023/06/12 06:50:33;;;;;;;3.08;2.25;;;38.60;61.50;;;;;;6153558;23;20017;-81
2023/06/12 06:53:02;;;;;;;3.83;2.50;;;38.60;61.90;;;;;;6155732;23;20505;-81
2023/06/12 06:55:27;;;;;;;2.50;1.92;;;38.60;61.50;;;;;;6155608;23;20005;-80
2023/06/12 06:57:54;;;;;;;3.53;1.92;;;39.20;60.10;;;;;;6153230;23;20033;-83
2023/06/12 07:00:21;;;;;;;4.70;2.30;;;39.00;56.20;;;;;;6156706;23;20002;-82
2023/06/12 07:02:48;;;;;;;4.13;2.00;;;39.60;77.00;;;;;;6155809;23;20005;-80
2023/06/12 07:05:14;;;;;;;2.92;2.15;;;39.90;57.20;;;;;;6153348;23;20002;-80
2023/06/12 07:07:40;;;;;;;3.90;2.35;;;39.20;57.00;;;;;;6155838;23;20040;-80
2023/06/12 07:10:07;;;;;;;4.45;2.65;;;38.30;57.90;;;;;;6174805;23;20010;-78
2023/06/12 07:12:34;;;;;;;2.60;2.03;;;37.50;80.90;;;;;;6177308;23;20002;-79
2023/06/12 07:14:59;;;;;;;4.55;2.42;;;37.10;79.60;;;;;;6178286;23;20020;-78
2023/06/12 07:17:25;;;;;;;3.75;2.33;;;37.20;59.90;;;;;;6177437;23;19994;-78
2023/06/12 07:19:50;;;;;;;4.55;2.50;;;36.30;63.30;;;;;;6178387;23;20004;-81
2023/06/12 07:22:16;;;;;;;4.55;2.05;;;;;;;;;;6156800;23;20005;-79
2023/06/12 07:24:42;;;;;;;4.90;3.05;;;35.00;65.80;;;;;;6157726;23;20013;-84
2023/06/12 07:27:08;;;;;;;4.35;2.83;;;34.20;67.50;;;;;;6156180;23;20053;-83
2023/06/12 07:29:33;;;;;;;4.72;2.88;;;34.00;67.50;;;;;;6158946;23;20002;-84
2023/06/12 07:31:59;;;;;;;3.72;2.17;;;33.20;70.40;;;;;;6158041;23;20383;-83
2023/06/12 07:34:25;;;;;;;4.30;2.50;;;33.00;72.30;;;;;;6158416;23;20078;-81
2023/06/12 07:36:50;;;;;;;4.07;2.92;;;32.70;73.70;;;;;;6158454;23;20002;-81
2023/06/12 07:39:16;;;;;;;4.72;2.38;;;;;;;;;;6151080;23;20002;-78
2023/06/12 07:41:42;;;;;;;5.35;3.08;;;32.40;72.00;;;;;;6153372;23;20431;-82
2023/06/12 07:44:10;;;;;;;3.88;2.33;;;32.30;70.40;;;;;;6154686;23;20439;-81
2023/06/12 07:46:36;;;;;;;4.63;2.65;;;32.30;71.90;;;;;;6129357;23;20335;-79
2023/06/12 07:49:02;;;;;;;4.88;2.72;;;;;;;;;;6154549;23;20013;-79
2023/06/12 07:51:28;;;;;;;7.28;3.25;;;;;;;;;;6157363;23;20009;-77
2023/06/12 07:53:53;;;;;;;4.00;1.90;;;31.60;72.40;;;;;;6153970;23;20443;-76
2023/06/12 07:56:19;;;;;;;3.30;2.22;;;31.40;75.10;;;;;;6156296;23;20500;-79
2023/06/12 07:58:48;;;;;;;6.55;2.78;;;31.70;75.50;;;;;;6156887;23;20002;-81
2023/06/12 08:01:14;;;;;;;4.80;2.90;;;32.10;72.70;;;;;;6155464;23;20072;-82
2023/06/12 08:03:39;;;;;;;5.30;3.20;;;32.80;71.00;;;;;;6157205;23;20006;-81
2023/06/12 08:06:09;;;;;;;5.00;2.58;;;32.40;72.20;;;;;;6154584;23;20064;-78
2023/06/12 08:08:46;;;;;;;3.28;2.28;;;32.70;72.50;;;;;;6155539;23;20017;-80
2023/06/12 08:11:13;;;;;;;3.58;2.55;;;32.60;72.70;;;;;;6156452;23;19998;-81
2023/06/12 08:13:40;;;;;;;2.45;1.63;;;31.80;91.30;;;;;;6158110;23;20489;-80
2023/06/12 08:16:07;;;;;;;4.32;2.90;;;32.00;74.20;;;;;;6157156;23;20061;-79
2023/06/12 08:18:33;;;;;;;5.93;3.08;;;;;;;;;;6157214;23;20008;-80
2023/06/12 08:20:59;;;;;;;5.03;2.95;;;30.80;77.20;;;;;;6156593;23;20024;-80
2023/06/12 08:23:24;;;;;;;3.95;2.45;;;30.40;77.90;;;;;;6129463;23;20006;-77
2023/06/12 08:25:52;;;;;;;2.78;2.00;;;30.70;93.00;;;;;;6155479;23;20010;-80
2023/06/12 08:28:17;;;;;;;7.32;3.00;;;31.20;87.70;;;;;;6154741;23;20009;-80
2023/06/12 08:30:44;;;;;;;4.05;2.70;;;30.90;86.80;;;;;;6154640;23;20010;-80
2023/06/12 08:33:10;;;;;;;5.18;2.90;;;31.30;86.60;;;;;;6155085;23;20016;-79
2023/06/12 08:35:36;;;;;;;4.50;2.78;;;;;;;;;;6154552;23;20066;-81
2023/06/12 08:38:02;;;;;;;4.47;2.72;;;31.10;79.10;;;;;;6156080;23;20093;-80
2023/06/12 08:40:29;;;;;;;3.20;2.13;;;31.10;84.40;;;;;;6156610;23;20283;-78
2023/06/12 08:42:54;;;;;;;3.60;1.92;;;32.80;81.10;;;;;;6156801;23;20005;-80
2023/06/12 08:45:25;;;;;;;3.55;2.45;;;33.10;81.30;;;;;;6156456;23;20002;-82
2023/06/12 08:47:52;;;;;;;10.45;2.53;;;35.50;76.20;;;;;;6155987;23;20002;-77
2023/06/12 08:50:19;;;;;;;4.53;2.50;;;35.40;75.40;;;;;;6153617;23;20005;-79
2023/06/12 08:52:46;;;;;;;4.28;2.05;;;33.90;93.60;;;;;;6156413;23;20330;-80
2023/06/12 08:55:16;;;;;;;5.00;2.38;;;34.70;93.60;;;;;;6156464;23;20331;-81
2023/06/12 08:57:43;;;;;;;3.83;2.10;;;34.90;79.20;;;;;;6156102;23;20423;-76
2023/06/12 09:00:12;;;;;;;4.07;2.45;;;35.30;77.60;;;;;;6153734;23;20036;-80
2023/06/12 09:02:50;;;;;;;2.90;1.88;;;36.50;72.90;;;;;;6153141;23;20009;-79
2023/06/12 09:05:26;;;;;;;4.55;2.22;;;36.90;75.60;;;;;;6156133;23;20084;-80
2023/06/12 09:07:53;;;;;;;2.90;2.20;;;37.60;71.80;;;;;;6151593;23;20013;-81
2023/06/12 09:10:18;;;;;;;5.22;2.35;;;37.60;68.70;;;;;;6156088;23;20001;-79
2023/06/12 09:12:45;;;;;;;3.83;2.75;;;37.30;90.10;;;;;;6157142;23;20013;-80
2023/06/12 09:15:21;;;;;;;2.88;2.13;;;37.20;70.70;;;;;;6131449;23;20009;-80
2023/06/12 09:17:51;;;;;;;4.60;2.58;;;36.50;72.70;;;;;;6156362;23;20028;-81
2023/06/12 09:20:21;;;;;;;3.90;2.10;;;35.40;72.90;;;;;;6154946;23;20009;-80
2023/06/12 09:22:51;;;;;;;5.85;2.88;;;33.90;92.20;;;;;;6155560;23;20004;-80
2023/06/12 09:25:18;;;;;;;5.57;3.00;;;33.00;75.80;;;;;;6153134;23;20053;-80
2023/06/12 09:27:45;;;;;;;8.48;2.78;;;32.60;78.20;;;;;;6155530;23;20033;-80
2023/06/12 09:30:11;;;;;;;4.25;2.45;;;32.30;94.30;;;;;;6156911;23;20035;-81
2023/06/12 09:32:37;;;;;;;4.07;2.53;;;31.10;94.90;;;;;;6153740;23;20010;-81
2023/06/12 09:35:03;;;;;;;3.55;2.20;;;31.50;82.20;;;;;;6155871;23;20343;-82
2023/06/12 09:37:31;;;;;;;7.03;2.67;;;31.20;81.50;;;;;;6154262;23;20080;-80
2023/06/12 09:40:14;;;;;;;3.65;2.28;;;30.20;81.70;;;;;;6156132;23;20088;-81
2023/06/12 09:42:41;;;;;;;5.10;2.33;;;29.30;75.20;;;;;;6129580;23;20014;-80
2023/06/12 09:45:14;;;;;;;3.20;2.28;;;29.70;75.40;;;;;;6156654;23;20069;-79
2023/06/12 09:47:46;;;;;;;5.20;2.58;;;29.50;73.60;;;;;;6155121;23;20010;-79
2023/06/12 09:50:15;;;;;;;5.47;2.45;;;29.40;77.10;;;;;;6155784;23;20013;-78
2023/06/12 09:52:44;;;;;;;4.90;2.72;;;28.90;93.40;;;;;;6155134;23;20009;-79
2023/06/12 09:55:12;;;;;;;4.40;2.90;;;28.50;76.00;;;;;;6153366;23;20014;-79
2023/06/12 09:57:40;;;;;;;8.40;3.42;;;28.70;77.90;;;;;;6155504;23;20005;-78
2023/06/12 10:00:08;;;;;;;5.13;2.92;;;28.80;74.00;;;;;;6155800;23;19997;-80
2023/06/12 10:02:39;;;;;;;5.05;3.00;;;27.90;91.30;;;;;;6154380;23;19997;-81
2023/06/12 10:05:27;;;;;;;7.55;2.47;;;28.00;75.40;;;;;;6155239;23;20391;-78
2023/06/12 10:07:55;;;;;;;3.90;2.92;;;27.70;76.40;;;;;;6152483;23;20087;-80
2023/06/12 10:10:22;;;;;;;3.55;2.35;;;27.50;75.50;;;;;;6153503;23;20037;-78
2023/06/12 10:12:52;;;;;;;7.07;2.67;;;27.40;92.00;;;;;;6154334;23;20040;-81
2023/06/12 10:15:19;;;;;;;4.80;3.13;;;;;;;;;;6155814;23;20005;-77
2023/06/12 10:17:46;;;;;;;6.97;2.63;;;27.00;76.90;;;;;;6153571;23;20096;-79
2023/06/12 10:20:12;;;;;;;3.40;2.17;;;27.60;81.90;;;;;;6154945;23;20504;-80
2023/06/12 10:22:38;;;;;;;4.88;2.70;;;27.40;92.70;;;;;;6155943;23;19998;-81
2023/06/12 10:25:06;;;;;;;5.90;2.97;;;27.60;77.80;;;;;;6152407;23;20330;-77
2023/06/12 10:27:33;;;;;;;3.65;2.53;;;;;;;;;;6155763;23;20466;-79
2023/06/12 10:29:59;;;;;;;3.25;2.40;;;28.30;73.60;;;;;;6155850;23;20002;-78
2023/06/12 10:32:33;;;;;;;4.97;2.10;;;29.00;71.00;;;;;;6153461;23;19998;-77
2023/06/12 10:35:01;;;;;;;6.05;3.13;;;29.00;70.60;;;;;;6156146;23;20006;-79
2023/06/12 10:37:38;;;;;;;4.32;2.22;;;29.40;72.20;;;;;;6156120;23;20013;-79
2023/06/12 10:40:18;;;;;;;6.50;2.72;;;28.80;72.00;;;;;;6153022;23;20100;-79
2023/06/12 10:42:45;;;;;;;5.72;2.38;;;29.30;90.00;;;;;;6155406;23;19996;-80
2023/06/12 10:45:30;;;;;;;3.20;2.50;;;29.60;70.80;;;;;;6156180;23;20435;-80
2023/06/12 10:48:02;;;;;;;5.40;3.08;;;29.00;68.20;;;;;;6153655;23;20006;-79
2023/06/12 10:50:28;;;;;;;3.73;2.30;;;29.30;71.40;;;;;;6153398;23;20028;-77
2023/06/12 10:53:00;;;;;;;5.18;2.60;;;28.90;70.90;;;;;;6154930;23;20006;-79
2023/06/12 10:55:29;;;;;;;4.55;2.40;;;28.50;72.30;;;;;;6151482;23;20079;-79
2023/06/12 10:57:59;;;;;;;5.72;2.88;;;28.40;73.70;;;;;;6154909;23;20077;-76
2023/06/12 11:00:34;;;;;;;4.93;2.80;;;27.90;71.40;;;;;;6153257;23;20386;-79
2023/06/12 11:03:13;;;;;;;6.32;2.63;;;27.60;71.90;;;;;;6151085;23;20014;-79
2023/06/12 11:05:51;;;;;;;6.00;2.50;;;27.60;74.10;;;;;;6148976;23;19998;-80
2023/06/12 11:08:18;;;;;;;4.85;3.10;;;27.50;71.30;;;;;;6151659;23;20009;-81
2023/06/12 11:10:45;;;;;;;8.90;2.28;;;27.70;72.40;;;;;;6150208;23;20085;-79
2023/06/12 11:13:11;;;;;;;4.45;2.83;;;27.70;72.40;;;;;;6154132;23;20005;-79
2023/06/12 11:15:47;;;;;;;5.85;2.15;;;27.80;72.20;;;;;;6154693;23;20089;-78
2023/06/12 11:18:14;;;;;;;4.35;2.75;;;27.80;73.00;;;;;;6149458;23;20006;-78
2023/06/12 11:20:42;;;;;;;6.90;2.88;;;27.90;73.90;;;;;;6151526;23;20006;-78
2023/06/12 11:23:07;;;;;;;11.75;2.72;;;27.70;70.90;;;;;;6155903;23;20005;-80
2023/06/12 11:25:46;;;;;;;3.30;2.35;;;27.70;73.10;;;;;;6156453;23;20002;-79
2023/06/12 11:28:19;;;;;;;4.50;2.90;;;27.50;90.90;;;;;;6157151;23;20009;-80
2023/06/12 11:30:53;;;;;;;5.38;3.17;;;27.40;73.00;;;;;;6151919;23;20009;-81
2023/06/12 11:33:20;;;;;;;6.65;3.00;;;;;;;;;;6155182;23;20414;-78
2023/06/12 11:35:48;;;;;;;3.95;2.25;;;27.30;68.50;;;;;;6152619;23;20009;-79
2023/06/12 11:38:18;;;;;;;4.65;2.70;;;27.00;72.10;;;;;;6154863;23;20031;-80
2023/06/12 11:40:46;;;;;;;4.72;2.55;;;26.80;91.00;;;;;;6156373;23;20435;-80
2023/06/12 11:43:12;;;;;;;11.00;3.05;;;;;;;;;;6156726;23;19997;-80
2023/06/12 11:45:41;;;;;;;5.55;2.55;;;;;;;;;;6154306;23;20044;-76
2023/06/12 11:48:14;;;;;;;3.00;2.00;;;27.00;68.80;;;;;;6157159;23;20060;-80
2023/06/12 11:50:49;;;;;;;6.10;2.87;;;27.10;91.30;;;;;;6153477;23;20006;-79
2023/06/12 11:53:15;;;;;;;4.18;2.67;;;27.50;71.00;;;;;;6154483;23;20221;-78
2023/06/12 11:55:44;;;;;;;4.07;2.65;;;26.80;73.20;;;;;;6154832;23;20005;-78
2023/06/12 11:58:10;;;;;;;3.60;2.58;;;27.90;72.30;;;;;;6156356;23;20014;-77
2023/06/12 12:00:39;;;;;;;4.13;2.60;;;27.90;72.40;;;;;;6157751;23;20002;-77
2023/06/12 12:03:09;;;;;;;4.80;2.97;;;27.40;70.70;;;;;;6152538;23;20004;-76
2023/06/12 12:05:37;;;;;;;3.70;2.28;;;27.60;71.80;;;;;;6152109;23;20285;-78
2023/06/12 12:08:04;;;;;;;3.75;2.38;;;27.00;91.40;;;;;;6154020;23;20017;-80
2023/06/12 12:10:32;;;;;;;4.88;3.00;;;27.20;69.30;;;;;;6156176;23;20001;-80
2023/06/12 12:13:00;;;;;;;3.70;2.25;;;27.10;72.10;;;;;;6155783;23;20069;-80
2023/06/12 12:15:28;;;;;;;3.95;2.60;;;27.70;69.50;;;;;;6157117;23;20005;-78
2023/06/12 12:17:54;;;;;;;5.00;2.25;;;27.70;70.10;;;;;;6154703;23;20010;-80
2023/06/12 12:20:22;;;;;;;5.20;2.20;;;28.00;70.20;;;;;;6156472;23;20002;-78
2023/06/12 12:22:58;;;;;;;4.78;2.33;;;28.30;90.80;;;;;;6154230;23;20468;-78
2023/06/12 12:25:30;;;;;;;4.90;2.50;;;28.00;72.50;;;;;;6149008;23;20077;-78
2023/06/12 12:27:59;;;;;;;;;;;28.50;68.00;;;;;;6158000;23;20013;-79
2023/06/12 12:30:26;;;;;;;6.55;2.30;;;27.90;70.40;;;;;;6158059;23;19911;-79
2023/06/12 12:32:53;;;;;;;4.72;2.45;;;27.70;70.00;;;;;;6157485;23;20006;-76
2023/06/12 12:35:20;;;;;;;4.93;2.85;;;27.70;70.90;;;;;;6155087;23;20052;-79
2023/06/12 12:37:47;;;;;;;4.88;2.80;;;27.60;71.20;;;;;;6154699;23;20059;-79
2023/06/12 12:40:14;;;;;;;5.57;2.45;;;27.30;73.00;;;;;;6155357;23;20053;-80
2023/06/12 12:42:44;;;;;;;3.72;2.35;;;27.30;71.30;;;;;;6151809;23;20075;-77
2023/06/12 12:45:11;;;;;;;4.95;2.67;;;27.80;90.70;;;;;;6154568;23;20009;-80
2023/06/12 12:47:40;;;;;;;5.18;2.53;;;27.60;68.30;;;;;;6152911;23;20367;-74
2023/06/12 12:50:07;;;;;;;4.13;2.38;;;27.80;69.40;;;;;;6153520;23;20006;-77
2023/06/12 12:52:33;;;;;;;4.28;2.30;;;27.30;90.20;;;;;;6153342;23;20016;-78
2023/06/12 12:54:59;;;;;;;4.35;2.45;;;27.20;90.10;;;;;;6156251;23;20005;-79
2023/06/12 12:57:31;;;;;;;3.42;2.08;;;27.20;71.60;;;;;;6154494;23;20008;-82
2023/06/12 13:00:04;;;;;;;3.80;1.95;;;27.10;72.40;;;;;;6154616;23;20002;-79
2023/06/12 13:02:30;;;;;;;;;;;27.10;70.40;;;;;;6154683;23;20005;-77